createdAt,value
2023-03-27T16:45:07.406Z,49.13
2023-03-27T16:50:14.824Z,97.28
2023-03-27T16:55:16.286Z,118.30
2023-03-27T17:00:19.783Z,95.30
2023-03-27T17:05:21.223Z,92.95
2023-03-27T17:10:22.748Z,60.90
2023-03-27T17:15:25.497Z,44.08
2023-03-27T17:20:27.059Z,23.50
2023-03-27T17:25:28.488Z,13.45
2023-03-27T17:30:39.582Z,12.45
2023-03-27T17:35:44.341Z,21.15
2023-03-27T17:40:45.824Z,105.85
2023-03-27T17:45:48.626Z,65.72
2023-03-27T17:51:05.224Z,36.50
2023-03-27T17:56:09.829Z,29.45
2023-03-27T18:01:13.528Z,43.60
2023-03-27T18:09:48.422Z,1.20
2023-03-27T18:14:49.834Z,1.60
2023-03-27T18:20:16.093Z,1.50
2023-03-27T18:25:17.784Z,1.65
2023-03-27T18:30:19.432Z,1.50
2023-03-27T18:38:41.029Z,2.92
2023-03-27T18:43:42.648Z,2.92
2023-03-27T18:48:44.796Z,3.03
2023-03-27T18:53:49.763Z,479.25
2023-03-27T18:58:51.955Z,210.38
2023-03-27T19:03:54.119Z,28.65
2023-03-27T19:08:57.633Z,8.85
2023-03-27T19:14:00.390Z,3.70
2023-03-27T19:19:12.168Z,45.65
2023-03-27T19:24:30.209Z,119.07
2023-03-27T19:29:33.238Z,194.43
2023-03-27T19:34:42.386Z,189.60
2023-03-27T19:39:46.273Z,174.50
2023-03-27T19:44:48.181Z,326.98
2023-03-27T19:49:50.078Z,296.00
2023-03-27T19:55:07.987Z,283.42
2023-03-27T20:00:10.971Z,279.42
2023-03-27T20:05:15.586Z,276.65
2023-03-27T20:10:18.770Z,271.58
2023-03-27T20:15:20.566Z,267.08
2023-03-27T20:20:22.269Z,264.58
2023-03-27T20:25:25.672Z,261.67
2023-03-27T20:30:27.587Z,254.52
2023-03-27T20:35:29.930Z,252.93
2023-03-27T20:40:46.294Z,249.20
2023-03-27T20:45:55.824Z,250.57
2023-03-27T20:50:57.422Z,243.70
2023-03-27T20:56:02.137Z,238.77
2023-03-27T21:01:04.325Z,233.95
2023-03-27T21:06:07.846Z,231.20
2023-03-27T21:11:11.028Z,233.55
2023-03-27T21:16:12.758Z,226.75
2023-03-27T21:21:14.479Z,226.88
2023-03-27T21:26:17.656Z,222.65
2023-03-27T21:31:20.137Z,214.98
2023-03-27T21:36:22.065Z,219.02
2023-03-27T21:41:25.557Z,210.13
2023-03-27T21:46:27.199Z,212.68
2023-03-27T21:51:28.951Z,208.95
2023-03-27T21:56:32.770Z,203.88
2023-03-27T22:01:36.355Z,200.65
2023-03-27T22:06:38.057Z,201.82
2023-03-27T22:11:43.887Z,198.65
2023-03-27T22:16:45.556Z,189.32
2023-03-27T22:21:48.906Z,188.65
2023-03-27T22:26:54.677Z,188.57
2023-03-27T22:31:57.748Z,185.38
2023-03-27T22:37:01.422Z,183.75
2023-03-27T22:42:04.686Z,183.65
2023-03-27T22:47:10.493Z,179.63
2023-03-27T22:52:12.142Z,169.05
2023-03-27T22:57:15.250Z,170.52
2023-03-27T23:02:17.012Z,173.13
2023-03-27T23:07:18.626Z,164.63
2023-03-27T23:12:21.581Z,167.65
2023-03-27T23:17:23.234Z,164.23
2023-03-27T23:22:27.650Z,162.13
2023-03-27T23:27:30.676Z,156.00
2023-03-27T23:32:35.500Z,158.65
2023-03-27T23:37:37.367Z,152.88
2023-03-27T23:42:43.175Z,152.50
2023-03-27T23:47:46.407Z,150.90
2023-03-27T23:52:48.348Z,150.38
2023-03-27T23:57:51.335Z,145.85
